BFD weather

Bradford Regional Airport
Bradford, Pennsylvania, United States

Public forecast

Using degrees Fahrenheit for public forecast. Weather courtesy of forecast.io.

Current aviation weather report (METAR) for Bradford Regional Airport

Retrieved 2019/10/19 13:05 UTC (35 minutes ago):

KBFD 191305Z AUTO 11003KT 9SM FEW001 00/M01 A3006 RMK AO2 T00001011

Aviation forecast (TAF) for Bradford Regional Airport

Retrieved 2019/10/19 12:00 UTC (2 hours ago):

TAF KBFD 191157Z 1912/2012 00000KT 1SM BR BKN001 FM191230 00000KT P6SM VCFG SKC FM191400 15004KT P6SM SCT250